sensor_id;sensor_type;location;lat;lon;timestamp;pressure;altitude;pressure_sealevel;temperature;humidity
24160;BME280;62385;41.594;23.808;2023-05-19T00:01:07;95497.44;;;12.46;77.33
24160;BME280;62385;41.594;23.808;2023-05-19T00:03:35;95493.09;;;12.30;76.75
24160;BME280;62385;41.594;23.808;2023-05-19T00:06:05;95490.84;;;12.05;78.22
24160;BME280;62385;41.594;23.808;2023-05-19T00:08:33;95493.53;;;12.19;77.15
24160;BME280;62385;41.594;23.808;2023-05-19T00:11:00;95493.63;;;12.11;78.06
24160;BME280;62385;41.594;23.808;2023-05-19T00:13:26;95486.47;;;11.89;79.08
24160;BME280;62385;41.594;23.808;2023-05-19T00:15:52;95492.84;;;12.25;78.78
24160;BME280;62385;41.594;23.808;2023-05-19T00:18:18;95484.31;;;12.30;77.92
24160;BME280;62385;41.594;23.808;2023-05-19T00:20:44;95494.50;;;11.81;79.41
24160;BME280;62385;41.594;23.808;2023-05-19T00:23:10;95492.06;;;11.79;79.54
24160;BME280;62385;41.594;23.808;2023-05-19T00:25:36;95498.25;;;11.94;78.30
24160;BME280;62385;41.594;23.808;2023-05-19T00:28:02;95489.56;;;12.38;76.84
24160;BME280;62385;41.594;23.808;2023-05-19T00:30:28;95497.91;;;12.49;76.87
24160;BME280;62385;41.594;23.808;2023-05-19T00:32:54;95492.75;;;12.48;77.20
24160;BME280;62385;41.594;23.808;2023-05-19T00:35:22;95493.41;;;12.50;77.09
24160;BME280;62385;41.594;23.808;2023-05-19T00:37:47;95499.94;;;12.62;77.94
24160;BME280;62385;41.594;23.808;2023-05-19T00:40:13;95494.50;;;12.56;77.62
24160;BME280;62385;41.594;23.808;2023-05-19T00:42:39;95500.63;;;12.27;79.10
24160;BME280;62385;41.594;23.808;2023-05-19T00:45:07;95499.00;;;12.03;79.12
24160;BME280;62385;41.594;23.808;2023-05-19T00:47:33;95502.38;;;11.97;79.91
24160;BME280;62385;41.594;23.808;2023-05-19T00:49:59;95501.59;;;11.66;80.71
24160;BME280;62385;41.594;23.808;2023-05-19T00:52:25;95496.84;;;11.53;81.59
24160;BME280;62385;41.594;23.808;2023-05-19T00:54:52;95503.16;;;11.83;80.30
24160;BME280;62385;41.594;23.808;2023-05-19T00:57:19;95499.84;;;11.81;79.92
24160;BME280;62385;41.594;23.808;2023-05-19T00:59:47;95485.31;;;11.91;79.43
24160;BME280;62385;41.594;23.808;2023-05-19T01:02:12;95483.22;;;12.01;79.03
24160;BME280;62385;41.594;23.808;2023-05-19T01:04:40;95480.06;;;12.21;78.55
24160;BME280;62385;41.594;23.808;2023-05-19T01:07:06;95481.22;;;12.18;77.49
24160;BME280;62385;41.594;23.808;2023-05-19T01:09:33;95491.47;;;11.92;78.76
24160;BME280;62385;41.594;23.808;2023-05-19T01:12:00;95488.34;;;11.88;79.75
24160;BME280;62385;41.594;23.808;2023-05-19T01:14:25;95490.19;;;12.02;79.32
24160;BME280;62385;41.594;23.808;2023-05-19T01:17:25;95497.78;;;11.60;79.95
24160;BME280;62385;41.594;23.808;2023-05-19T01:20:02;95474.06;;;11.58;81.04
24160;BME280;62385;41.594;23.808;2023-05-19T01:31:05;95472.84;;;11.92;79.10
24160;BME280;62385;41.594;23.808;2023-05-19T01:33:32;95471.25;;;11.52;81.35
24160;BME280;62385;41.594;23.808;2023-05-19T01:35:59;95467.97;;;11.50;80.61
24160;BME280;62385;41.594;23.808;2023-05-19T01:38:27;95473.75;;;11.53;80.58
24160;BME280;62385;41.594;23.808;2023-05-19T01:40:55;95464.78;;;11.54;80.77
24160;BME280;62385;41.594;23.808;2023-05-19T01:43:24;95466.34;;;11.64;80.95
24160;BME280;62385;41.594;23.808;2023-05-19T01:45:50;95474.06;;;11.58;81.08
24160;BME280;62385;41.594;23.808;2023-05-19T01:48:17;95472.22;;;11.59;80.22
24160;BME280;62385;41.594;23.808;2023-05-19T01:50:44;95464.50;;;11.72;80.45
24160;BME280;62385;41.594;23.808;2023-05-19T01:53:10;95466.22;;;11.88;79.41
24160;BME280;62385;41.594;23.808;2023-05-19T01:55:48;95469.72;;;11.88;79.43
24160;BME280;62385;41.594;23.808;2023-05-19T01:58:46;95457.56;;;11.86;79.94
24160;BME280;62385;41.594;23.808;2023-05-19T02:01:23;95461.13;;;11.78;80.07
24160;BME280;62385;41.594;23.808;2023-05-19T02:07:00;95466.06;;;11.36;81.78
24160;BME280;62385;41.594;23.808;2023-05-19T02:09:37;95462.72;;;11.42;81.27
24160;BME280;62385;41.594;23.808;2023-05-19T02:12:18;95470.44;;;11.51;80.74
24160;BME280;62385;41.594;23.808;2023-05-19T02:14:49;95463.94;;;11.54;80.15
24160;BME280;62385;41.594;23.808;2023-05-19T02:17:17;95460.31;;;11.55;79.43
24160;BME280;62385;41.594;23.808;2023-05-19T02:19:45;95460.69;;;11.89;78.76
24160;BME280;62385;41.594;23.808;2023-05-19T02:22:10;95462.47;;;11.97;78.10
24160;BME280;62385;41.594;23.808;2023-05-19T02:24:36;95463.50;;;12.11;76.69
24160;BME280;62385;41.594;23.808;2023-05-19T02:27:02;95471.94;;;12.14;78.60
24160;BME280;62385;41.594;23.808;2023-05-19T02:29:27;95472.16;;;12.13;78.07
24160;BME280;62385;41.594;23.808;2023-05-19T02:31:53;95473.44;;;12.17;79.00
24160;BME280;62385;41.594;23.808;2023-05-19T02:34:19;95480.06;;;12.21;79.50
24160;BME280;62385;41.594;23.808;2023-05-19T02:36:45;95474.81;;;12.13;79.76
24160;BME280;62385;41.594;23.808;2023-05-19T02:39:14;95481.75;;;11.76;80.40
24160;BME280;62385;41.594;23.808;2023-05-19T02:41:40;95482.41;;;11.25;82.27
24160;BME280;62385;41.594;23.808;2023-05-19T02:44:06;95479.50;;;11.11;83.70
24160;BME280;62385;41.594;23.808;2023-05-19T02:46:32;95486.88;;;11.01;83.54
24160;BME280;62385;41.594;23.808;2023-05-19T02:48:59;95481.66;;;11.08;82.75
24160;BME280;62385;41.594;23.808;2023-05-19T02:51:26;95478.81;;;11.18;82.17
24160;BME280;62385;41.594;23.808;2023-05-19T02:53:51;95476.88;;;11.34;81.09
24160;BME280;62385;41.594;23.808;2023-05-19T02:56:17;95472.16;;;11.67;79.95
24160;BME280;62385;41.594;23.808;2023-05-19T02:58:42;95466.28;;;11.80;79.14
24160;BME280;62385;41.594;23.808;2023-05-19T03:01:10;95470.56;;;11.58;79.66
24160;BME280;62385;41.594;23.808;2023-05-19T03:03:36;95477.66;;;11.12;81.77
24160;BME280;62385;41.594;23.808;2023-05-19T03:06:03;95483.56;;;11.30;81.24
24160;BME280;62385;41.594;23.808;2023-05-19T03:08:31;95478.50;;;11.13;81.74
24160;BME280;62385;41.594;23.808;2023-05-19T03:10:57;95494.69;;;10.95;81.81
24160;BME280;62385;41.594;23.808;2023-05-19T03:13:22;95497.50;;;10.93;82.50
24160;BME280;62385;41.594;23.808;2023-05-19T03:15:48;95495.78;;;10.70;82.30
24160;BME280;62385;41.594;23.808;2023-05-19T03:18:15;95490.63;;;10.76;82.38
24160;BME280;62385;41.594;23.808;2023-05-19T03:20:42;95492.06;;;10.87;81.35
24160;BME280;62385;41.594;23.808;2023-05-19T03:23:09;95507.28;;;10.46;83.23
24160;BME280;62385;41.594;23.808;2023-05-19T03:25:34;95508.22;;;10.69;82.38
24160;BME280;62385;41.594;23.808;2023-05-19T03:28:00;95506.25;;;10.63;81.83
24160;BME280;62385;41.594;23.808;2023-05-19T03:30:26;95513.25;;;10.48;82.08
24160;BME280;62385;41.594;23.808;2023-05-19T03:33:03;95507.03;;;10.80;81.31
24160;BME280;62385;41.594;23.808;2023-05-19T03:35:29;95505.13;;;11.27;79.87
24160;BME280;62385;41.594;23.808;2023-05-19T03:37:55;95505.97;;;11.28;79.51
24160;BME280;62385;41.594;23.808;2023-05-19T03:40:22;95506.09;;;11.03;80.41
24160;BME280;62385;41.594;23.808;2023-05-19T03:42:54;95518.03;;;10.60;81.09
24160;BME280;62385;41.594;23.808;2023-05-19T03:45:22;95509.75;;;10.63;81.41
24160;BME280;62385;41.594;23.808;2023-05-19T03:47:49;95506.13;;;10.48;81.94
24160;BME280;62385;41.594;23.808;2023-05-19T03:50:40;95501.53;;;10.81;80.44
24160;BME280;62385;41.594;23.808;2023-05-19T03:53:13;95512.50;;;10.78;80.44
24160;BME280;62385;41.594;23.808;2023-05-19T03:55:40;95513.75;;;10.98;79.56
24160;BME280;62385;41.594;23.808;2023-05-19T03:58:05;95517.34;;;11.14;79.33
24160;BME280;62385;41.594;23.808;2023-05-19T04:00:31;95513.50;;;11.78;77.22
24160;BME280;62385;41.594;23.808;2023-05-19T04:02:56;95513.25;;;12.10;76.44
24160;BME280;62385;41.594;23.808;2023-05-19T04:05:23;95518.53;;;12.33;75.42
24160;BME280;62385;41.594;23.808;2023-05-19T04:07:48;95514.19;;;12.55;75.64
24160;BME280;62385;41.594;23.808;2023-05-19T04:10:14;95524.81;;;12.69;75.18
24160;BME280;62385;41.594;23.808;2023-05-19T04:12:39;95520.38;;;12.47;75.41
24160;BME280;62385;41.594;23.808;2023-05-19T04:15:05;95518.03;;;12.67;75.39
24160;BME280;62385;41.594;23.808;2023-05-19T04:17:31;95513.47;;;12.75;74.77
24160;BME280;62385;41.594;23.808;2023-05-19T04:19:57;95518.50;;;13.00;74.54
24160;BME280;62385;41.594;23.808;2023-05-19T04:22:22;95515.63;;;13.01;73.98
24160;BME280;62385;41.594;23.808;2023-05-19T04:24:48;95505.81;;;13.02;73.49
24160;BME280;62385;41.594;23.808;2023-05-19T04:27:14;95516.47;;;13.02;73.31
24160;BME280;62385;41.594;23.808;2023-05-19T04:29:44;95523.66;;;13.16;73.59
24160;BME280;62385;41.594;23.808;2023-05-19T04:32:12;95529.69;;;13.39;73.74
24160;BME280;62385;41.594;23.808;2023-05-19T04:34:42;95526.00;;;13.40;73.01
24160;BME280;62385;41.594;23.808;2023-05-19T04:37:11;95529.63;;;13.18;72.89
24160;BME280;62385;41.594;23.808;2023-05-19T04:39:39;95527.91;;;13.61;72.69
24160;BME280;62385;41.594;23.808;2023-05-19T04:42:08;95518.13;;;13.89;69.52
24160;BME280;62385;41.594;23.808;2023-05-19T04:44:34;95523.47;;;13.89;70.27
24160;BME280;62385;41.594;23.808;2023-05-19T04:47:21;95525.00;;;13.98;69.34
24160;BME280;62385;41.594;23.808;2023-05-19T04:49:47;95515.28;;;13.91;69.48
24160;BME280;62385;41.594;23.808;2023-05-19T04:52:13;95508.94;;;13.56;68.75
24160;BME280;62385;41.594;23.808;2023-05-19T04:54:41;95502.25;;;13.81;70.55
24160;BME280;62385;41.594;23.808;2023-05-19T04:57:09;95512.09;;;14.02;69.62
24160;BME280;62385;41.594;23.808;2023-05-19T04:59:38;95518.06;;;13.61;69.31
24160;BME280;62385;41.594;23.808;2023-05-19T05:02:06;95525.31;;;14.31;69.09
24160;BME280;62385;41.594;23.808;2023-05-19T05:04:33;95534.09;;;14.04;72.21
24160;BME280;62385;41.594;23.808;2023-05-19T05:06:58;95534.53;;;14.28;72.51
24160;BME280;62385;41.594;23.808;2023-05-19T05:09:25;95526.63;;;14.42;72.50
24160;BME280;62385;41.594;23.808;2023-05-19T05:11:50;95532.25;;;14.47;73.22
24160;BME280;62385;41.594;23.808;2023-05-19T05:14:17;95542.69;;;13.99;73.93
24160;BME280;62385;41.594;23.808;2023-05-19T05:16:43;95532.22;;;14.25;73.11
24160;BME280;62385;41.594;23.808;2023-05-19T05:19:13;95541.06;;;14.05;72.72
24160;BME280;62385;41.594;23.808;2023-05-19T05:21:39;95534.16;;;14.10;72.15
24160;BME280;62385;41.594;23.808;2023-05-19T05:24:06;95531.44;;;14.04;70.15
24160;BME280;62385;41.594;23.808;2023-05-19T05:26:34;95530.47;;;14.32;70.17
24160;BME280;62385;41.594;23.808;2023-05-19T05:29:00;95523.75;;;14.37;70.32
24160;BME280;62385;41.594;23.808;2023-05-19T05:31:26;95522.38;;;14.26;69.13
24160;BME280;62385;41.594;23.808;2023-05-19T05:33:52;95528.13;;;14.44;69.50
24160;BME280;62385;41.594;23.808;2023-05-19T05:36:21;95521.50;;;14.40;68.80
24160;BME280;62385;41.594;23.808;2023-05-19T05:38:47;95530.06;;;14.57;68.49
24160;BME280;62385;41.594;23.808;2023-05-19T05:41:14;95525.50;;;14.51;68.14
24160;BME280;62385;41.594;23.808;2023-05-19T05:43:39;95530.53;;;14.67;68.05
24160;BME280;62385;41.594;23.808;2023-05-19T05:46:06;95535.38;;;14.78;68.29
24160;BME280;62385;41.594;23.808;2023-05-19T05:48:31;95537.50;;;14.89;68.45
24160;BME280;62385;41.594;23.808;2023-05-19T05:50:58;95524.22;;;15.09;66.08
24160;BME280;62385;41.594;23.808;2023-05-19T05:53:29;95534.16;;;14.87;69.08
24160;BME280;62385;41.594;23.808;2023-05-19T05:55:57;95530.88;;;14.85;68.29
24160;BME280;62385;41.594;23.808;2023-05-19T05:58:27;95538.66;;;14.80;68.61
24160;BME280;62385;41.594;23.808;2023-05-19T06:00:53;95534.66;;;15.32;67.84
24160;BME280;62385;41.594;23.808;2023-05-19T06:03:22;95525.84;;;15.44;67.30
24160;BME280;62385;41.594;23.808;2023-05-19T06:05:49;95533.56;;;15.60;66.22
24160;BME280;62385;41.594;23.808;2023-05-19T06:08:14;95533.75;;;15.59;67.44
24160;BME280;62385;41.594;23.808;2023-05-19T06:10:42;95531.78;;;15.81;67.17
24160;BME280;62385;41.594;23.808;2023-05-19T06:13:09;95532.59;;;15.88;68.06
24160;BME280;62385;41.594;23.808;2023-05-19T06:15:37;95544.75;;;15.77;68.72
24160;BME280;62385;41.594;23.808;2023-05-19T06:18:23;95538.94;;;15.74;68.14
24160;BME280;62385;41.594;23.808;2023-05-19T06:20:51;95534.88;;;15.91;67.58
24160;BME280;62385;41.594;23.808;2023-05-19T06:23:16;95545.75;;;15.83;67.71
24160;BME280;62385;41.594;23.808;2023-05-19T06:25:42;95537.38;;;16.05;67.82
24160;BME280;62385;41.594;23.808;2023-05-19T06:28:08;95534.97;;;16.50;66.50
24160;BME280;62385;41.594;23.808;2023-05-19T06:30:34;95531.69;;;16.61;64.76
24160;BME280;62385;41.594;23.808;2023-05-19T06:33:12;95532.91;;;16.78;66.25
24160;BME280;62385;41.594;23.808;2023-05-19T06:35:39;95544.25;;;16.60;65.74
24160;BME280;62385;41.594;23.808;2023-05-19T06:38:05;95545.66;;;16.56;65.03
24160;BME280;62385;41.594;23.808;2023-05-19T06:40:32;95543.22;;;16.88;65.25
24160;BME280;62385;41.594;23.808;2023-05-19T06:42:57;95543.44;;;16.80;64.94
24160;BME280;62385;41.594;23.808;2023-05-19T06:45:32;95542.59;;;16.92;63.75
24160;BME280;62385;41.594;23.808;2023-05-19T06:48:01;95540.06;;;17.17;63.10
24160;BME280;62385;41.594;23.808;2023-05-19T06:50:27;95535.31;;;17.19;63.91
24160;BME280;62385;41.594;23.808;2023-05-19T06:52:53;95532.84;;;17.31;64.24
24160;BME280;62385;41.594;23.808;2023-05-19T06:55:18;95528.78;;;17.66;61.42
24160;BME280;62385;41.594;23.808;2023-05-19T06:57:44;95536.66;;;17.68;59.38
24160;BME280;62385;41.594;23.808;2023-05-19T07:00:11;95531.03;;;17.76;59.25
24160;BME280;62385;41.594;23.808;2023-05-19T07:02:39;95531.22;;;17.74;60.37
24160;BME280;62385;41.594;23.808;2023-05-19T07:05:05;95533.22;;;17.34;57.90
24160;BME280;62385;41.594;23.808;2023-05-19T07:07:33;95531.41;;;17.79;60.68
24160;BME280;62385;41.594;23.808;2023-05-19T07:09:59;95534.44;;;18.27;56.75
24160;BME280;62385;41.594;23.808;2023-05-19T07:12:27;95526.81;;;18.24;53.01
24160;BME280;62385;41.594;23.808;2023-05-19T07:14:53;95529.06;;;17.96;51.36
24160;BME280;62385;41.594;23.808;2023-05-19T07:17:19;95524.13;;;18.24;51.96
24160;BME280;62385;41.594;23.808;2023-05-19T07:19:44;95538.25;;;18.13;52.40
24160;BME280;62385;41.594;23.808;2023-05-19T07:22:10;95524.56;;;18.21;49.15
24160;BME280;62385;41.594;23.808;2023-05-19T07:24:36;95539.34;;;18.37;49.71
24160;BME280;62385;41.594;23.808;2023-05-19T07:27:01;95533.50;;;18.47;50.23
24160;BME280;62385;41.594;23.808;2023-05-19T07:29:27;95533.25;;;18.55;49.11
24160;BME280;62385;41.594;23.808;2023-05-19T07:31:52;95538.50;;;18.68;49.52
24160;BME280;62385;41.594;23.808;2023-05-19T07:34:22;95528.94;;;18.72;48.93
24160;BME280;62385;41.594;23.808;2023-05-19T07:36:49;95528.94;;;18.97;47.62
24160;BME280;62385;41.594;23.808;2023-05-19T07:39:16;95522.00;;;19.07;47.24
24160;BME280;62385;41.594;23.808;2023-05-19T07:41:42;95517.50;;;19.44;48.73
24160;BME280;62385;41.594;23.808;2023-05-19T07:44:07;95523.31;;;19.59;48.40
24160;BME280;62385;41.594;23.808;2023-05-19T07:46:36;95520.91;;;19.15;47.44
24160;BME280;62385;41.594;23.808;2023-05-19T07:49:02;95522.63;;;19.82;47.91
24160;BME280;62385;41.594;23.808;2023-05-19T07:51:29;95516.41;;;19.27;47.81
24160;BME280;62385;41.594;23.808;2023-05-19T07:53:55;95515.44;;;19.76;47.73
24160;BME280;62385;41.594;23.808;2023-05-19T07:56:21;95505.38;;;20.01;48.51
24160;BME280;62385;41.594;23.808;2023-05-19T07:58:48;95514.03;;;19.73;47.39
24160;BME280;62385;41.594;23.808;2023-05-19T08:01:14;95520.03;;;19.57;45.45
24160;BME280;62385;41.594;23.808;2023-05-19T08:03:40;95511.38;;;20.03;46.20
24160;BME280;62385;41.594;23.808;2023-05-19T08:06:05;95518.44;;;19.86;44.89
24160;BME280;62385;41.594;23.808;2023-05-19T08:08:31;95511.94;;;20.05;46.55
24160;BME280;62385;41.594;23.808;2023-05-19T08:11:16;95507.59;;;20.04;45.47
24160;BME280;62385;41.594;23.808;2023-05-19T08:13:42;95510.13;;;19.88;47.35
24160;BME280;62385;41.594;23.808;2023-05-19T08:16:07;95504.78;;;19.69;47.35
24160;BME280;62385;41.594;23.808;2023-05-19T08:18:34;95517.66;;;19.97;47.45
24160;BME280;62385;41.594;23.808;2023-05-19T08:21:00;95507.69;;;20.27;47.92
24160;BME280;62385;41.594;23.808;2023-05-19T08:23:25;95513.56;;;19.95;47.95
24160;BME280;62385;41.594;23.808;2023-05-19T08:25:51;95507.19;;;20.19;47.32
24160;BME280;62385;41.594;23.808;2023-05-19T08:28:17;95502.13;;;20.41;47.52
24160;BME280;62385;41.594;23.808;2023-05-19T08:30:42;95509.69;;;20.62;49.37
24160;BME280;62385;41.594;23.808;2023-05-19T08:33:09;95507.44;;;20.59;48.26
24160;BME280;62385;41.594;23.808;2023-05-19T08:35:34;95506.28;;;21.01;47.38
24160;BME280;62385;41.594;23.808;2023-05-19T08:38:00;95503.13;;;21.39;46.37
24160;BME280;62385;41.594;23.808;2023-05-19T08:40:26;95509.91;;;20.72;49.16
24160;BME280;62385;41.594;23.808;2023-05-19T08:42:56;95518.19;;;20.17;46.85
24160;BME280;62385;41.594;23.808;2023-05-19T08:45:21;95511.91;;;20.65;44.31
24160;BME280;62385;41.594;23.808;2023-05-19T08:47:47;95506.28;;;21.01;43.87
24160;BME280;62385;41.594;23.808;2023-05-19T08:50:23;95505.84;;;21.28;45.30
24160;BME280;62385;41.594;23.808;2023-05-19T08:52:55;95506.66;;;20.70;44.15
24160;BME280;62385;41.594;23.808;2023-05-19T08:55:47;95507.34;;;21.47;43.79
24160;BME280;62385;41.594;23.808;2023-05-19T08:58:17;95497.31;;;22.11;42.78
24160;BME280;62385;41.594;23.808;2023-05-19T09:00:46;95498.44;;;21.98;41.96
24160;BME280;62385;41.594;23.808;2023-05-19T09:03:12;95502.28;;;20.92;43.54
24160;BME280;62385;41.594;23.808;2023-05-19T09:05:40;95506.25;;;22.11;42.61
24160;BME280;62385;41.594;23.808;2023-05-19T09:08:06;95508.81;;;21.78;42.35
24160;BME280;62385;41.594;23.808;2023-05-19T09:10:32;95504.16;;;20.68;39.98
24160;BME280;62385;41.594;23.808;2023-05-19T09:12:57;95502.63;;;20.49;42.27
24160;BME280;62385;41.594;23.808;2023-05-19T09:15:26;95507.91;;;20.26;42.15
24160;BME280;62385;41.594;23.808;2023-05-19T09:18:24;95509.69;;;20.62;41.05
24160;BME280;62385;41.594;23.808;2023-05-19T09:20:55;95505.81;;;20.81;42.11
24160;BME280;62385;41.594;23.808;2023-05-19T09:23:29;95505.81;;;20.81;43.16
24160;BME280;62385;41.594;23.808;2023-05-19T09:25:56;95516.78;;;20.33;42.85
24160;BME280;62385;41.594;23.808;2023-05-19T09:28:26;95522.00;;;20.28;44.41
24160;BME280;62385;41.594;23.808;2023-05-19T09:31:04;95524.56;;;20.23;42.19
24160;BME280;62385;41.594;23.808;2023-05-19T09:33:38;95524.47;;;20.00;43.77
24160;BME280;62385;41.594;23.808;2023-05-19T09:36:04;95516.00;;;19.96;44.35
24160;BME280;62385;41.594;23.808;2023-05-19T09:38:30;95523.03;;;19.97;43.44
24160;BME280;62385;41.594;23.808;2023-05-19T09:40:58;95524.41;;;20.48;43.88
24160;BME280;62385;41.594;23.808;2023-05-19T09:43:30;95522.28;;;20.38;44.06
24160;BME280;62385;41.594;23.808;2023-05-19T09:48:26;95513.84;;;21.23;44.09
24160;BME280;62385;41.594;23.808;2023-05-19T09:50:54;95503.09;;;22.02;44.10
24160;BME280;62385;41.594;23.808;2023-05-19T09:53:21;95501.97;;;22.60;43.13
24160;BME280;62385;41.594;23.808;2023-05-19T09:55:49;95494.09;;;22.42;42.95
24160;BME280;62385;41.594;23.808;2023-05-19T09:58:17;95503.19;;;22.07;45.15
24160;BME280;62385;41.594;23.808;2023-05-19T10:00:44;95505.13;;;22.24;46.38
24160;BME280;62385;41.594;23.808;2023-05-19T10:03:09;95498.22;;;22.16;48.10
24160;BME280;62385;41.594;23.808;2023-05-19T10:05:36;95499.03;;;22.17;48.55
24160;BME280;62385;41.594;23.808;2023-05-19T10:08:02;95503.63;;;22.16;46.92
24160;BME280;62385;41.594;23.808;2023-05-19T10:10:32;95511.09;;;20.88;49.44
24160;BME280;62385;41.594;23.808;2023-05-19T10:12:58;95501.44;;;20.45;49.08
24160;BME280;62385;41.594;23.808;2023-05-19T10:15:25;95509.19;;;20.23;51.87
24160;BME280;62385;41.594;23.808;2023-05-19T10:17:51;95509.66;;;20.20;51.78
24160;BME280;62385;41.594;23.808;2023-05-19T10:20:16;95511.50;;;19.78;54.03
24160;BME280;62385;41.594;23.808;2023-05-19T10:22:44;95511.94;;;20.05;53.54
24160;BME280;62385;41.594;23.808;2023-05-19T10:25:32;95515.69;;;20.34;49.07
24160;BME280;62385;41.594;23.808;2023-05-19T10:28:03;95514.34;;;20.55;48.46
24160;BME280;62385;41.594;23.808;2023-05-19T10:30:45;95511.34;;;20.86;47.41
24160;BME280;62385;41.594;23.808;2023-05-19T10:33:16;95526.34;;;20.70;46.71
24160;BME280;62385;41.594;23.808;2023-05-19T10:41:27;95498.94;;;21.20;45.14
24160;BME280;62385;41.594;23.808;2023-05-19T10:46:28;95506.06;;;21.38;47.48
24160;BME280;62385;41.594;23.808;2023-05-19T10:48:54;95503.00;;;20.88;47.74
24160;BME280;62385;41.594;23.808;2023-05-19T10:51:27;95508.88;;;21.43;47.60
24160;BME280;62385;41.594;23.808;2023-05-19T10:53:55;95502.56;;;21.77;45.66
24160;BME280;62385;41.594;23.808;2023-05-19T10:56:30;95505.00;;;21.90;45.87
24160;BME280;62385;41.594;23.808;2023-05-19T10:58:58;95522.72;;;21.00;46.97
24160;BME280;62385;41.594;23.808;2023-05-19T11:01:32;95512.41;;;20.73;44.39
24160;BME280;62385;41.594;23.808;2023-05-19T11:04:04;95512.34;;;20.50;43.34
24160;BME280;62385;41.594;23.808;2023-05-19T11:06:32;95509.00;;;20.90;45.79
24160;BME280;62385;41.594;23.808;2023-05-19T11:09:20;95505.34;;;20.96;46.70
24160;BME280;62385;41.594;23.808;2023-05-19T11:11:48;95507.25;;;20.95;48.14
24160;BME280;62385;41.594;23.808;2023-05-19T11:14:16;95504.66;;;21.35;48.69
24160;BME280;62385;41.594;23.808;2023-05-19T11:16:46;95506.25;;;21.59;48.28
24160;BME280;62385;41.594;23.808;2023-05-19T11:19:29;95505.88;;;21.68;46.82
24160;BME280;62385;41.594;23.808;2023-05-19T11:21:56;95500.56;;;21.21;48.38
24160;BME280;62385;41.594;23.808;2023-05-19T11:24:34;95495.44;;;21.59;46.37
24160;BME280;62385;41.594;23.808;2023-05-19T11:29:53;95492.41;;;21.96;46.10
24160;BME280;62385;41.594;23.808;2023-05-19T11:32:20;95501.94;;;21.98;47.41
24160;BME280;62385;41.594;23.808;2023-05-19T11:34:47;95497.09;;;21.60;49.32
24160;BME280;62385;41.594;23.808;2023-05-19T11:37:13;95503.72;;;21.30;50.98
24160;BME280;62385;41.594;23.808;2023-05-19T11:39:39;95497.22;;;21.54;48.33
24160;BME280;62385;41.594;23.808;2023-05-19T11:42:07;95495.81;;;21.51;50.96
24160;BME280;62385;41.594;23.808;2023-05-19T11:44:34;95489.50;;;20.88;51.21
24160;BME280;62385;41.594;23.808;2023-05-19T11:47:00;95494.56;;;20.72;51.19
24160;BME280;62385;41.594;23.808;2023-05-19T11:49:27;95489.84;;;20.68;52.09
24160;BME280;62385;41.594;23.808;2023-05-19T11:51:53;95490.69;;;20.68;51.99
24160;BME280;62385;41.594;23.808;2023-05-19T11:54:19;95494.06;;;20.64;53.17
24160;BME280;62385;41.594;23.808;2023-05-19T11:56:45;95489.63;;;20.93;53.05
24160;BME280;62385;41.594;23.808;2023-05-19T11:59:12;95492.44;;;21.09;52.96
24160;BME280;62385;41.594;23.808;2023-05-19T12:01:37;95491.75;;;21.26;51.60
24160;BME280;62385;41.594;23.808;2023-05-19T12:04:21;95491.09;;;21.58;50.77
24160;BME280;62385;41.594;23.808;2023-05-19T12:06:47;95474.66;;;22.45;47.60
24160;BME280;62385;41.594;23.808;2023-05-19T12:09:13;95469.31;;;23.17;44.99
24160;BME280;62385;41.594;23.808;2023-05-19T12:11:39;95464.47;;;23.40;44.23
24160;BME280;62385;41.594;23.808;2023-05-19T12:14:04;95455.25;;;23.58;43.66
24160;BME280;62385;41.594;23.808;2023-05-19T12:16:34;95440.66;;;23.59;45.15
24160;BME280;62385;41.594;23.808;2023-05-19T12:19:00;95439.97;;;23.47;47.11
24160;BME280;62385;41.594;23.808;2023-05-19T12:21:30;95436.59;;;23.83;44.35
24160;BME280;62385;41.594;23.808;2023-05-19T12:23:55;95435.59;;;23.46;41.98
24160;BME280;62385;41.594;23.808;2023-05-19T12:26:21;95436.16;;;23.48;40.99
24160;BME280;62385;41.594;23.808;2023-05-19T12:28:48;95431.81;;;23.09;41.87
24160;BME280;62385;41.594;23.808;2023-05-19T12:31:16;95436.75;;;22.62;41.70
24160;BME280;62385;41.594;23.808;2023-05-19T12:33:42;95435.03;;;23.44;41.25
24160;BME280;62385;41.594;23.808;2023-05-19T12:36:08;95436.72;;;23.12;40.60
24160;BME280;62385;41.594;23.808;2023-05-19T12:38:35;95425.59;;;23.47;38.04
24160;BME280;62385;41.594;23.808;2023-05-19T12:41:04;95432.59;;;24.45;39.89
24160;BME280;62385;41.594;23.808;2023-05-19T12:43:30;95431.66;;;24.61;39.65
24160;BME280;62385;41.594;23.808;2023-05-19T12:45:57;95433.44;;;23.70;37.13
24160;BME280;62385;41.594;23.808;2023-05-19T12:48:23;95431.53;;;22.88;40.13
24160;BME280;62385;41.594;23.808;2023-05-19T12:50:50;95437.28;;;22.75;40.04
24160;BME280;62385;41.594;23.808;2023-05-19T12:53:17;95438.56;;;22.23;41.15
24160;BME280;62385;41.594;23.808;2023-05-19T12:55:44;95446.22;;;21.97;40.36
24160;BME280;62385;41.594;23.808;2023-05-19T12:58:10;95431.63;;;22.60;38.51
24160;BME280;62385;41.594;23.808;2023-05-19T13:00:44;95434.50;;;22.70;39.61
24160;BME280;62385;41.594;23.808;2023-05-19T13:03:15;95434.06;;;22.28;38.07
24160;BME280;62385;41.594;23.808;2023-05-19T13:05:44;95424.34;;;22.77;37.93
24160;BME280;62385;41.594;23.808;2023-05-19T13:08:12;95434.25;;;22.55;36.60
24160;BME280;62385;41.594;23.808;2023-05-19T13:10:39;95423.84;;;22.80;38.46
24160;BME280;62385;41.594;23.808;2023-05-19T13:13:06;95420.88;;;22.48;37.88
24160;BME280;62385;41.594;23.808;2023-05-19T13:15:33;95427.19;;;22.37;38.04
24160;BME280;62385;41.594;23.808;2023-05-19T13:18:01;95430.34;;;22.01;37.91
24160;BME280;62385;41.594;23.808;2023-05-19T13:20:29;95418.25;;;22.70;38.02